createdAt,value
2019-03-25T00:02:10.653Z,3.63
2019-03-25T00:04:37.890Z,3.60
2019-03-25T00:07:05.363Z,3.50
2019-03-25T00:09:32.597Z,3.20
2019-03-25T00:11:59.834Z,4.00
2019-03-25T00:14:27.087Z,3.93
2019-03-25T00:16:54.299Z,3.37
2019-03-25T00:19:21.506Z,3.80
2019-03-25T00:21:48.720Z,3.20
2019-03-25T00:24:16.224Z,3.90
2019-03-25T00:26:43.447Z,3.57
2019-03-25T00:29:10.676Z,3.37
2019-03-25T00:31:37.886Z,3.80
2019-03-25T00:34:05.122Z,4.00
2019-03-25T00:36:32.357Z,4.10
2019-03-25T00:38:59.566Z,4.00
2019-03-25T00:41:27.122Z,3.40
2019-03-25T00:43:54.398Z,3.77
2019-03-25T00:46:21.634Z,3.43
2019-03-25T00:48:48.842Z,3.30
2019-03-25T00:51:16.398Z,3.53
2019-03-25T00:53:43.613Z,3.70
2019-03-25T00:56:11.102Z,3.70
2019-03-25T00:58:38.338Z,3.30
2019-03-25T01:01:05.543Z,4.37
2019-03-25T01:03:32.798Z,3.70
2019-03-25T01:06:00.306Z,3.53
2019-03-25T01:08:27.521Z,4.00
2019-03-25T01:10:54.745Z,3.57
2019-03-25T01:13:21.966Z,3.87
2019-03-25T01:15:49.272Z,3.63
2019-03-25T01:18:17.402Z,3.87
2019-03-25T01:20:45.150Z,4.37
2019-03-25T01:23:12.381Z,3.03
2019-03-25T01:25:39.594Z,3.20
2019-03-25T01:28:06.834Z,4.57
2019-03-25T01:30:34.366Z,4.20
2019-03-25T01:33:01.919Z,3.83
2019-03-25T01:35:29.136Z,3.60
2019-03-25T01:37:56.347Z,3.57
2019-03-25T01:40:23.574Z,3.97
2019-03-25T01:42:51.143Z,3.37
2019-03-25T01:45:18.415Z,3.93
2019-03-25T01:47:46.469Z,3.97
2019-03-25T01:50:13.693Z,3.43
2019-03-25T01:52:41.275Z,4.10
2019-03-25T01:55:13.422Z,3.87
2019-03-25T01:57:38.219Z,4.03
2019-03-25T02:00:06.331Z,3.47
2019-03-25T02:02:33.575Z,3.93
2019-03-25T02:05:01.619Z,3.57
2019-03-25T02:07:28.829Z,3.97
2019-03-25T02:09:56.064Z,3.97
2019-03-25T02:12:23.281Z,3.90
2019-03-25T02:14:50.499Z,4.33
2019-03-25T02:17:17.758Z,4.20
2019-03-25T02:19:44.994Z,3.80
2019-03-25T02:22:12.485Z,4.63
2019-03-25T02:24:39.823Z,4.27
2019-03-25T02:27:07.394Z,4.37
2019-03-25T02:29:34.610Z,4.03
2019-03-25T02:32:01.839Z,4.13
2019-03-25T02:34:29.095Z,4.37
2019-03-25T02:36:56.598Z,4.80
2019-03-25T02:39:24.176Z,4.10
2019-03-25T02:41:51.379Z,4.40
2019-03-25T02:44:18.631Z,3.83
2019-03-25T02:46:45.888Z,4.47
2019-03-25T02:49:13.377Z,4.07
2019-03-25T02:51:40.615Z,4.33
2019-03-25T02:54:07.896Z,4.63
2019-03-25T02:56:35.165Z,4.13
2019-03-25T02:59:02.404Z,4.03
2019-03-25T03:01:29.614Z,4.40
2019-03-25T03:03:57.187Z,4.50
2019-03-25T03:06:24.751Z,3.80
2019-03-25T03:08:51.969Z,4.07
2019-03-25T03:11:19.221Z,4.33
2019-03-25T03:13:46.467Z,4.07
2019-03-25T03:16:14.059Z,4.63
2019-03-25T03:18:41.299Z,4.20
2019-03-25T03:21:08.591Z,4.30
2019-03-25T03:23:36.212Z,4.07
2019-03-25T03:26:03.434Z,4.03
2019-03-25T03:28:30.666Z,4.47
2019-03-25T03:30:57.890Z,4.60
2019-03-25T03:33:25.213Z,4.23
2019-03-25T03:35:52.503Z,4.43
2019-03-25T03:38:19.731Z,4.37
2019-03-25T03:40:47.311Z,4.30
2019-03-25T03:43:14.546Z,4.17
2019-03-25T03:45:42.097Z,4.13
2019-03-25T03:48:09.305Z,4.10
2019-03-25T03:50:36.757Z,4.27
2019-03-25T03:53:04.094Z,4.00
2019-03-25T03:55:31.608Z,4.40
2019-03-25T03:57:59.519Z,3.90
2019-03-25T04:00:27.972Z,4.13
2019-03-25T04:02:55.167Z,4.23
2019-03-25T04:05:22.412Z,4.07
2019-03-25T04:07:49.634Z,4.00
2019-03-25T04:10:16.874Z,3.83
2019-03-25T04:12:44.078Z,3.70
2019-03-25T04:15:12.842Z,4.17
2019-03-25T04:17:40.065Z,4.47
2019-03-25T04:20:07.371Z,3.73
2019-03-25T04:22:34.864Z,4.47
2019-03-25T04:25:02.103Z,3.90
2019-03-25T04:27:29.343Z,4.07
2019-03-25T04:29:56.563Z,4.40
2019-03-25T04:32:23.784Z,4.87
2019-03-25T04:34:51.026Z,4.73
2019-03-25T04:37:18.567Z,3.70
2019-03-25T04:39:45.803Z,4.90
2019-03-25T04:42:13.012Z,4.97
2019-03-25T04:44:40.257Z,4.67
2019-03-25T04:47:07.466Z,5.43
2019-03-25T04:49:35.035Z,4.87
2019-03-25T04:52:02.606Z,4.67
2019-03-25T04:54:30.208Z,4.97
2019-03-25T04:56:57.811Z,4.83
2019-03-25T04:59:25.069Z,5.10
2019-03-25T05:01:52.625Z,5.07
2019-03-25T05:04:19.838Z,5.27
2019-03-25T05:06:47.326Z,5.50
2019-03-25T05:09:14.552Z,4.77
2019-03-25T05:11:41.778Z,5.40
2019-03-25T05:14:09.281Z,5.80
2019-03-25T05:16:36.858Z,5.63
2019-03-25T05:19:04.115Z,5.13
2019-03-25T05:21:31.319Z,5.90
2019-03-25T05:23:58.562Z,5.17
2019-03-25T05:26:25.807Z,6.67
2019-03-25T05:28:53.034Z,7.03
2019-03-25T05:31:20.553Z,8.47
2019-03-25T05:33:47.790Z,9.40
2019-03-25T05:36:15.047Z,10.63
2019-03-25T05:38:42.392Z,9.90
2019-03-25T05:41:09.602Z,10.27
2019-03-25T05:43:37.119Z,11.20
2019-03-25T05:46:04.338Z,13.10
2019-03-25T05:48:31.573Z,11.83
2019-03-25T05:50:58.810Z,14.20
2019-03-25T05:53:26.334Z,12.80
2019-03-25T05:55:53.558Z,12.80
2019-03-25T05:58:20.804Z,11.97
2019-03-25T06:00:48.294Z,12.03
2019-03-25T06:03:15.849Z,12.03
2019-03-25T06:05:43.093Z,11.03
2019-03-25T06:08:10.663Z,9.90
2019-03-25T06:10:37.873Z,9.90
2019-03-25T06:13:05.095Z,10.17
2019-03-25T06:15:32.623Z,9.53
2019-03-25T06:17:59.874Z,7.87
2019-03-25T06:20:27.085Z,7.27
2019-03-25T06:22:54.323Z,6.43
2019-03-25T06:25:21.582Z,5.70
2019-03-25T06:27:48.793Z,5.90
2019-03-25T06:30:16.634Z,4.90
2019-03-25T06:32:43.871Z,4.17
2019-03-25T06:35:11.451Z,3.67
2019-03-25T06:37:38.670Z,4.60
2019-03-25T06:40:06.747Z,3.90
2019-03-25T06:42:34.381Z,3.90
2019-03-25T06:45:01.886Z,4.77
2019-03-25T06:47:29.115Z,4.73
2019-03-25T06:49:56.595Z,4.77
2019-03-25T06:52:23.829Z,4.83
2019-03-25T06:54:51.036Z,5.30
2019-03-25T06:57:25.524Z,4.87
2019-03-25T06:59:47.569Z,4.93
2019-03-25T07:02:15.103Z,5.07
2019-03-25T07:04:42.670Z,5.00
2019-03-25T07:07:09.882Z,5.30
2019-03-25T07:09:37.490Z,6.20
2019-03-25T07:12:04.757Z,6.83
2019-03-25T07:14:31.966Z,6.67
2019-03-25T07:16:59.197Z,6.17
2019-03-25T07:19:26.426Z,6.67
2019-03-25T07:21:53.938Z,5.13
2019-03-25T07:24:21.277Z,6.13
2019-03-25T07:26:48.748Z,5.33
2019-03-25T07:29:15.951Z,3.70
2019-03-25T07:31:43.189Z,4.97
2019-03-25T07:34:10.710Z,4.80
2019-03-25T07:36:37.930Z,4.30
2019-03-25T07:39:06.028Z,4.13
2019-03-25T07:41:33.582Z,4.70
2019-03-25T07:44:01.038Z,3.93
2019-03-25T07:46:28.266Z,4.40
2019-03-25T07:48:55.473Z,4.47
2019-03-25T07:51:22.725Z,4.53
2019-03-25T07:53:51.061Z,3.93
2019-03-25T07:56:18.462Z,3.70
2019-03-25T07:58:45.669Z,3.97
2019-03-25T08:01:13.231Z,3.73
2019-03-25T08:03:40.439Z,3.40
2019-03-25T08:06:07.667Z,3.43
2019-03-25T08:08:34.892Z,4.80
2019-03-25T08:11:02.106Z,3.93
2019-03-25T08:13:29.593Z,5.23
2019-03-25T08:15:56.842Z,4.60
2019-03-25T08:18:24.114Z,3.80
2019-03-25T08:20:51.317Z,4.67
2019-03-25T08:23:18.802Z,4.70
2019-03-25T08:25:46.028Z,4.13
2019-03-25T08:28:13.270Z,4.30
2019-03-25T08:30:40.759Z,3.87
2019-03-25T08:33:07.993Z,4.13
2019-03-25T08:35:35.274Z,4.63
2019-03-25T08:38:02.515Z,3.43
2019-03-25T08:40:29.726Z,3.63
2019-03-25T08:42:56.970Z,4.07
2019-03-25T08:45:24.182Z,4.70
2019-03-25T08:47:51.387Z,3.70
2019-03-25T08:50:18.623Z,3.23
2019-03-25T08:52:46.126Z,3.33
2019-03-25T08:55:13.337Z,3.57
2019-03-25T08:57:40.577Z,3.47
2019-03-25T09:00:08.925Z,3.30
2019-03-25T09:02:36.129Z,3.67
2019-03-25T09:05:04.118Z,3.37
2019-03-25T09:07:31.329Z,3.37
2019-03-25T09:09:58.556Z,3.93
2019-03-25T09:12:25.758Z,3.27
2019-03-25T09:14:53.332Z,3.10
2019-03-25T09:17:20.598Z,3.43
2019-03-25T09:19:48.242Z,3.73
2019-03-25T09:22:15.711Z,3.17
2019-03-25T09:24:42.954Z,3.20
2019-03-25T09:27:10.174Z,4.03
2019-03-25T09:29:37.395Z,2.97
2019-03-25T09:32:05.027Z,4.10
2019-03-25T09:34:32.242Z,3.00
2019-03-25T09:36:59.742Z,3.23
2019-03-25T09:39:26.925Z,3.27
2019-03-25T09:41:54.153Z,3.50
2019-03-25T09:44:21.381Z,3.30
2019-03-25T09:46:48.601Z,3.33
2019-03-25T09:49:16.079Z,3.87
2019-03-25T09:51:43.312Z,2.43
2019-03-25T09:54:10.786Z,2.83
2019-03-25T09:56:38.348Z,3.57
2019-03-25T09:59:05.643Z,2.77
2019-03-25T10:01:32.881Z,2.37
2019-03-25T10:04:00.158Z,1.60
2019-03-25T10:06:27.363Z,1.40
2019-03-25T10:08:54.626Z,1.63
2019-03-25T10:11:22.158Z,2.17
2019-03-25T10:13:49.933Z,1.90
2019-03-25T10:16:17.162Z,2.17
2019-03-25T10:18:44.758Z,2.90
2019-03-25T10:21:12.032Z,2.40
2019-03-25T10:23:39.267Z,2.50
2019-03-25T10:26:06.585Z,2.23
2019-03-25T10:28:34.163Z,2.63
2019-03-25T10:31:01.469Z,2.97
2019-03-25T10:33:28.674Z,2.77
2019-03-25T10:35:56.210Z,2.67
2019-03-25T10:38:23.775Z,3.00
2019-03-25T10:40:50.978Z,2.10
2019-03-25T10:43:18.578Z,2.00
2019-03-25T10:45:45.804Z,1.57
2019-03-25T10:48:13.030Z,2.23
2019-03-25T10:50:40.237Z,1.53
2019-03-25T10:53:07.782Z,2.43
2019-03-25T10:55:35.016Z,3.03
2019-03-25T10:58:02.221Z,2.83
2019-03-25T11:00:29.535Z,2.63
2019-03-25T11:02:56.746Z,3.10
2019-03-25T11:05:23.973Z,3.13
2019-03-25T11:07:51.171Z,1.90
2019-03-25T11:10:18.754Z,1.70
2019-03-25T11:12:45.987Z,0.53
2019-03-25T11:15:13.478Z,0.77
2019-03-25T11:17:41.030Z,1.17
2019-03-25T11:20:08.923Z,1.00
2019-03-25T11:22:36.126Z,1.50
2019-03-25T11:25:04.832Z,1.60
2019-03-25T11:27:32.054Z,1.43
2019-03-25T11:29:59.628Z,1.53
2019-03-25T11:32:26.829Z,1.50
2019-03-25T11:34:54.135Z,1.70
2019-03-25T11:37:21.337Z,1.27
2019-03-25T11:39:48.569Z,1.40
2019-03-25T11:42:15.778Z,1.63
2019-03-25T11:44:42.986Z,1.63
2019-03-25T11:47:10.486Z,1.40
2019-03-25T11:49:38.053Z,1.67
2019-03-25T11:52:05.343Z,1.17
2019-03-25T11:54:32.554Z,1.47
2019-03-25T11:56:59.763Z,1.63
2019-03-25T11:59:26.989Z,1.70
2019-03-25T12:01:54.214Z,1.57
2019-03-25T12:04:21.418Z,1.50
2019-03-25T12:06:48.914Z,1.77
2019-03-25T12:09:16.121Z,2.30
2019-03-25T12:11:43.338Z,1.77
2019-03-25T12:14:10.993Z,2.57
2019-03-25T12:16:38.532Z,2.70
2019-03-25T12:19:06.194Z,2.37
2019-03-25T12:21:33.417Z,2.53
2019-03-25T12:24:00.627Z,3.23
2019-03-25T12:26:27.938Z,1.30
2019-03-25T12:28:55.150Z,1.60
2019-03-25T12:31:22.754Z,2.17
2019-03-25T12:33:49.962Z,2.10
2019-03-25T12:36:17.208Z,2.40
2019-03-25T12:38:44.430Z,1.73
2019-03-25T12:41:11.967Z,2.13
2019-03-25T12:43:39.189Z,2.30
2019-03-25T12:46:06.669Z,2.23
2019-03-25T12:48:33.901Z,1.70
2019-03-25T12:51:01.378Z,1.83
2019-03-25T12:53:28.836Z,2.00
2019-03-25T12:55:56.055Z,1.70
2019-03-25T12:58:23.286Z,1.93
2019-03-25T13:00:50.538Z,1.63
2019-03-25T13:03:17.762Z,1.73
2019-03-25T13:05:44.997Z,1.73
2019-03-25T13:08:12.197Z,1.53
2019-03-25T13:10:39.709Z,2.03
2019-03-25T13:13:06.946Z,1.50
2019-03-25T13:15:34.153Z,1.63
2019-03-25T13:18:01.658Z,1.57
2019-03-25T13:20:28.878Z,1.80
2019-03-25T13:22:56.094Z,1.10
2019-03-25T13:25:23.317Z,1.20
2019-03-25T13:27:50.862Z,0.90
2019-03-25T13:30:18.097Z,0.90
2019-03-25T13:32:45.305Z,1.07
2019-03-25T13:35:12.530Z,1.10
2019-03-25T13:37:40.082Z,1.00
2019-03-25T13:40:07.570Z,1.10
2019-03-25T13:42:35.117Z,1.60
2019-03-25T13:45:02.398Z,1.80
2019-03-25T13:47:29.634Z,1.33
2019-03-25T13:49:57.155Z,1.57
2019-03-25T13:52:24.383Z,1.17
2019-03-25T13:54:51.858Z,1.23
2019-03-25T13:57:19.087Z,1.27
2019-03-25T13:59:46.355Z,1.40
2019-03-25T14:02:13.560Z,1.47
2019-03-25T14:04:40.791Z,1.60
2019-03-25T14:07:08.019Z,1.40
2019-03-25T14:09:35.217Z,1.80
2019-03-25T14:12:02.443Z,1.47
2019-03-25T14:14:29.645Z,1.17
2019-03-25T14:16:57.120Z,1.40
2019-03-25T14:19:24.326Z,1.10
2019-03-25T14:21:51.549Z,1.47
2019-03-25T14:24:18.750Z,1.90
2019-03-25T14:26:45.987Z,1.80
2019-03-25T14:29:13.215Z,2.20
2019-03-25T14:31:40.744Z,2.60
2019-03-25T14:34:08.188Z,2.00
2019-03-25T14:36:35.413Z,2.60
2019-03-25T14:39:02.617Z,1.70
2019-03-25T14:41:29.825Z,1.47
2019-03-25T14:43:57.064Z,1.87
2019-03-25T14:46:24.314Z,2.93
2019-03-25T14:48:51.794Z,2.30
2019-03-25T14:51:19.037Z,1.73
2019-03-25T14:53:46.508Z,2.50
2019-03-25T14:56:13.745Z,2.17
2019-03-25T14:58:40.966Z,2.40
2019-03-25T15:01:08.197Z,1.80
2019-03-25T15:03:35.410Z,2.27
2019-03-25T15:06:02.641Z,2.27
2019-03-25T15:08:29.855Z,2.27
2019-03-25T15:10:57.101Z,1.93
2019-03-25T15:13:24.314Z,2.23
2019-03-25T15:15:51.537Z,2.10
2019-03-25T15:18:18.750Z,2.07
2019-03-25T15:20:45.955Z,2.63
2019-03-25T15:23:13.188Z,3.23
2019-03-25T15:25:40.429Z,2.97
2019-03-25T15:28:07.927Z,3.13
2019-03-25T15:30:36.461Z,2.83
2019-03-25T15:33:04.184Z,2.30
2019-03-25T15:35:31.397Z,2.70
2019-03-25T15:37:58.631Z,2.20
2019-03-25T15:40:25.900Z,2.60
2019-03-25T15:42:53.289Z,2.93
2019-03-25T15:45:20.732Z,2.13
2019-03-25T15:47:48.172Z,2.53
2019-03-25T15:50:15.881Z,2.73
2019-03-25T15:52:43.106Z,2.73
2019-03-25T15:55:10.723Z,3.00
2019-03-25T15:57:39.789Z,3.07
2019-03-25T16:00:08.762Z,2.60
2019-03-25T16:02:36.010Z,2.60
2019-03-25T16:05:03.483Z,1.90
2019-03-25T16:07:30.725Z,2.43
2019-03-25T16:09:57.958Z,2.40
2019-03-25T16:12:25.194Z,2.10
2019-03-25T16:14:52.775Z,1.93
2019-03-25T16:17:20.047Z,1.87
2019-03-25T16:19:47.278Z,2.33
2019-03-25T16:22:14.513Z,1.93
2019-03-25T16:24:41.818Z,2.00
2019-03-25T16:27:09.362Z,2.80
2019-03-25T16:29:36.635Z,2.30
2019-03-25T16:32:03.846Z,2.20
2019-03-25T16:34:31.076Z,2.77
2019-03-25T16:36:58.312Z,2.90
2019-03-25T16:39:25.803Z,3.37
2019-03-25T16:41:53.350Z,3.40
2019-03-25T16:44:20.583Z,3.03
2019-03-25T16:46:47.833Z,3.13
2019-03-25T16:49:15.074Z,3.30
2019-03-25T16:51:42.272Z,2.00
2019-03-25T16:54:09.488Z,2.97
2019-03-25T16:56:36.742Z,1.73
2019-03-25T16:59:03.934Z,2.77
2019-03-25T17:01:31.462Z,2.67
2019-03-25T17:03:58.694Z,2.23
2019-03-25T17:06:25.935Z,2.93
2019-03-25T17:08:53.418Z,2.50
2019-03-25T17:11:20.878Z,2.93
2019-03-25T17:13:48.111Z,3.63
2019-03-25T17:16:15.322Z,3.07
2019-03-25T17:18:42.557Z,3.60
2019-03-25T17:21:09.880Z,4.40
2019-03-25T17:23:37.110Z,3.97
2019-03-25T17:26:04.330Z,4.10
2019-03-25T17:28:31.840Z,3.77
2019-03-25T17:30:59.089Z,3.50
2019-03-25T17:33:27.578Z,3.47
2019-03-25T17:35:54.785Z,3.67
2019-03-25T17:38:22.181Z,3.90
2019-03-25T17:40:49.730Z,3.60
2019-03-25T17:43:17.299Z,3.93
2019-03-25T17:45:44.526Z,3.87
2019-03-25T17:48:11.740Z,5.03
2019-03-25T17:50:38.962Z,4.90
2019-03-25T17:53:06.194Z,5.10
2019-03-25T17:55:33.758Z,4.80
2019-03-25T17:58:01.928Z,6.00
2019-03-25T18:00:39.726Z,5.87
2019-03-25T18:03:11.199Z,5.80
2019-03-25T18:05:36.278Z,6.00
2019-03-25T18:08:03.558Z,5.90
2019-03-25T18:10:31.104Z,5.47
2019-03-25T18:12:58.648Z,5.47
2019-03-25T18:15:26.104Z,4.53
2019-03-25T18:17:55.013Z,4.07
2019-03-25T18:20:24.298Z,4.90
2019-03-25T18:22:51.747Z,4.70
2019-03-25T18:25:22.299Z,4.10
2019-03-25T18:27:49.615Z,2.73
2019-03-25T18:30:18.626Z,3.23
2019-03-25T18:32:46.182Z,1.73
2019-03-25T18:35:14.933Z,2.03
2019-03-25T18:37:42.162Z,1.93
2019-03-25T18:40:09.844Z,1.83
2019-03-25T18:42:37.338Z,1.80
2019-03-25T18:45:05.434Z,2.00
2019-03-25T18:47:32.666Z,1.90
2019-03-25T18:50:00.393Z,2.47
2019-03-25T18:52:27.724Z,1.93
2019-03-25T18:54:54.960Z,2.37
2019-03-25T18:57:22.161Z,2.10
2019-03-25T18:59:50.360Z,2.20
2019-03-25T19:02:17.643Z,2.10
2019-03-25T19:04:44.889Z,2.63
2019-03-25T19:07:12.114Z,2.60
2019-03-25T19:09:39.317Z,2.53
2019-03-25T19:12:06.609Z,2.03
2019-03-25T19:14:33.852Z,1.70
2019-03-25T19:17:01.740Z,1.53
2019-03-25T19:19:28.954Z,1.80
2019-03-25T19:21:56.170Z,1.67
2019-03-25T19:24:23.462Z,1.50
2019-03-25T19:26:50.666Z,1.67
2019-03-25T19:29:17.901Z,2.10
2019-03-25T19:31:46.011Z,1.83
2019-03-25T19:34:13.510Z,1.80
2019-03-25T19:36:40.724Z,2.37
2019-03-25T19:39:08.363Z,2.33
2019-03-25T19:41:36.572Z,2.50
2019-03-25T19:44:03.859Z,2.37
2019-03-25T19:46:31.442Z,2.73
2019-03-25T19:48:58.828Z,2.30
2019-03-25T19:51:26.102Z,2.60
2019-03-25T19:53:53.342Z,2.60
2019-03-25T19:56:21.612Z,2.40
2019-03-25T19:58:48.901Z,2.13
2019-03-25T20:01:16.450Z,2.60
2019-03-25T20:03:43.680Z,1.90
2019-03-25T20:06:10.914Z,2.00
2019-03-25T20:08:38.126Z,2.27
2019-03-25T20:11:05.389Z,2.33
2019-03-25T20:13:32.606Z,2.03
2019-03-25T20:15:59.895Z,2.10
2019-03-25T20:18:27.115Z,2.63
2019-03-25T20:20:54.823Z,2.23
2019-03-25T20:23:22.142Z,2.63
2019-03-25T20:25:49.387Z,2.50
2019-03-25T20:28:16.690Z,2.23
2019-03-25T20:30:44.178Z,2.40
2019-03-25T20:33:12.323Z,2.23
2019-03-25T20:35:39.577Z,2.27
2019-03-25T20:38:07.165Z,2.80
2019-03-25T20:40:34.373Z,2.60
2019-03-25T20:43:01.605Z,1.90
2019-03-25T20:45:28.811Z,2.43
2019-03-25T20:47:56.076Z,2.37
2019-03-25T20:50:23.373Z,2.40
2019-03-25T20:52:50.601Z,1.70
2019-03-25T20:55:17.917Z,2.10
2019-03-25T20:57:45.707Z,2.03
2019-03-25T21:00:13.659Z,2.40
2019-03-25T21:02:45.353Z,2.53
2019-03-25T21:05:10.503Z,2.97
2019-03-25T21:07:37.954Z,2.43
2019-03-25T21:10:06.513Z,2.70
2019-03-25T21:12:33.927Z,3.17
2019-03-25T21:15:01.243Z,3.20
2019-03-25T21:17:28.598Z,3.00
2019-03-25T21:19:55.847Z,3.10
2019-03-25T21:22:23.456Z,3.23
2019-03-25T21:24:51.161Z,3.07
2019-03-25T21:27:18.456Z,3.33
2019-03-25T21:29:45.959Z,2.63
2019-03-25T21:32:13.372Z,2.97
2019-03-25T21:34:40.689Z,3.60
2019-03-25T21:37:08.260Z,3.50
2019-03-25T21:39:35.681Z,3.47
2019-03-25T21:42:03.138Z,3.30
2019-03-25T21:44:30.369Z,3.57
2019-03-25T21:46:58.036Z,3.50
2019-03-25T21:49:25.452Z,3.33
2019-03-25T21:51:52.662Z,3.50
2019-03-25T21:54:19.983Z,4.47
2019-03-25T21:56:47.700Z,3.57
2019-03-25T21:59:14.947Z,3.73
2019-03-25T22:01:42.292Z,3.70
2019-03-25T22:04:09.555Z,3.00
2019-03-25T22:06:36.812Z,3.53
2019-03-25T22:09:05.474Z,3.57
2019-03-25T22:11:32.686Z,4.20
2019-03-25T22:13:59.932Z,3.07
2019-03-25T22:16:27.462Z,2.67
2019-03-25T22:18:54.699Z,2.80
2019-03-25T22:21:21.922Z,2.27
2019-03-25T22:23:49.134Z,3.10
2019-03-25T22:26:16.388Z,2.87
2019-03-25T22:28:43.918Z,2.40
2019-03-25T22:31:11.211Z,2.60
2019-03-25T22:33:38.462Z,2.20
2019-03-25T22:36:05.981Z,3.07
2019-03-25T22:38:33.214Z,2.47
2019-03-25T22:41:00.419Z,3.20
2019-03-25T22:43:27.659Z,2.60
2019-03-25T22:45:54.873Z,2.90
2019-03-25T22:48:22.107Z,2.90
2019-03-25T22:50:49.343Z,3.17
2019-03-25T22:53:16.562Z,2.50
2019-03-25T22:55:43.810Z,2.83
2019-03-25T22:58:11.026Z,3.20
2019-03-25T23:00:39.930Z,2.97
2019-03-25T23:03:07.486Z,3.00
2019-03-25T23:05:34.706Z,3.57
2019-03-25T23:08:02.928Z,2.90
2019-03-25T23:10:30.165Z,3.57
2019-03-25T23:12:57.713Z,2.70
2019-03-25T23:15:24.980Z,2.60
2019-03-25T23:17:52.535Z,3.27
2019-03-25T23:20:20.106Z,3.10
2019-03-25T23:22:47.305Z,2.43
2019-03-25T23:25:14.510Z,3.47
2019-03-25T23:27:41.740Z,2.93
2019-03-25T23:30:09.194Z,3.20
2019-03-25T23:32:36.431Z,3.30
2019-03-25T23:35:04.815Z,3.50
2019-03-25T23:37:32.041Z,3.10
2019-03-25T23:39:59.264Z,2.93
2019-03-25T23:42:26.784Z,3.27
2019-03-25T23:44:54.017Z,3.47
2019-03-25T23:47:21.242Z,3.37
2019-03-25T23:49:48.470Z,3.80
2019-03-25T23:52:16.043Z,3.13
2019-03-25T23:54:43.287Z,4.00
2019-03-25T23:57:10.502Z,4.23
2019-03-25T23:59:37.718Z,5.07
